sensor_id;sensor_type;location;lat;lon;timestamp;pressure;altitude;pressure_sealevel;temperature;humidity
3598;BME280;1813;52.016;8.714;2023-04-26T00:02:26;-16261.94;;;-139.71;67.03
3598;BME280;1813;52.016;8.714;2023-04-26T00:05:01;-16261.94;;;-139.71;67.21
3598;BME280;1813;52.016;8.714;2023-04-26T00:07:35;-16261.94;;;-139.71;67.39
3598;BME280;1813;52.016;8.714;2023-04-26T00:10:10;-16261.94;;;-139.71;67.57
3598;BME280;1813;52.016;8.714;2023-04-26T00:12:46;-16261.94;;;-139.71;67.55
3598;BME280;1813;52.016;8.714;2023-04-26T00:15:23;-16261.94;;;-139.71;67.83
3598;BME280;1813;52.016;8.714;2023-04-26T00:17:57;-16261.94;;;-139.71;67.99
3598;BME280;1813;52.016;8.714;2023-04-26T00:20:31;-16261.94;;;-139.71;68.07
3598;BME280;1813;52.016;8.714;2023-04-26T00:23:05;-16261.94;;;-139.71;68.28
3598;BME280;1813;52.016;8.714;2023-04-26T00:25:40;-16261.94;;;-139.71;68.51
3598;BME280;1813;52.016;8.714;2023-04-26T00:28:15;-16261.94;;;-139.71;68.71
3598;BME280;1813;52.016;8.714;2023-04-26T00:30:52;-16261.94;;;-139.71;68.96
3598;BME280;1813;52.016;8.714;2023-04-26T00:33:27;-16261.94;;;-139.71;69.08
3598;BME280;1813;52.016;8.714;2023-04-26T00:36:01;-16261.94;;;-139.71;69.04
3598;BME280;1813;52.016;8.714;2023-04-26T00:38:35;-16261.94;;;-139.71;69.17
3598;BME280;1813;52.016;8.714;2023-04-26T00:41:10;-16261.94;;;-139.71;69.26
3598;BME280;1813;52.016;8.714;2023-04-26T00:43:44;-16261.94;;;-139.71;69.32
3598;BME280;1813;52.016;8.714;2023-04-26T00:46:21;-16261.94;;;-139.71;69.32
3598;BME280;1813;52.016;8.714;2023-04-26T00:48:56;-16261.94;;;-139.71;69.37
3598;BME280;1813;52.016;8.714;2023-04-26T00:51:31;-16261.94;;;-139.71;69.43
3598;BME280;1813;52.016;8.714;2023-04-26T00:54:05;-16261.94;;;-139.71;69.71
3598;BME280;1813;52.016;8.714;2023-04-26T00:56:41;-16261.94;;;-139.71;69.91
3598;BME280;1813;52.016;8.714;2023-04-26T00:59:16;-16261.94;;;-139.71;69.91
3598;BME280;1813;52.016;8.714;2023-04-26T01:01:52;-16261.94;;;-139.71;69.94
3598;BME280;1813;52.016;8.714;2023-04-26T01:04:27;-16261.94;;;-139.71;70.03
3598;BME280;1813;52.016;8.714;2023-04-26T01:07:01;-16261.94;;;-139.71;70.34
3598;BME280;1813;52.016;8.714;2023-04-26T01:09:38;-16261.94;;;-139.71;70.34
3598;BME280;1813;52.016;8.714;2023-04-26T01:12:14;-16261.94;;;-139.71;70.59
3598;BME280;1813;52.016;8.714;2023-04-26T01:14:49;-16261.94;;;-139.71;70.74
3598;BME280;1813;52.016;8.714;2023-04-26T01:17:26;-16261.94;;;-139.71;70.84
3598;BME280;1813;52.016;8.714;2023-04-26T01:20:01;-16261.94;;;-139.71;71.11
3598;BME280;1813;52.016;8.714;2023-04-26T01:22:38;-16261.94;;;-139.71;71.21
3598;BME280;1813;52.016;8.714;2023-04-26T01:25:13;-16261.94;;;-139.71;71.26
3598;BME280;1813;52.016;8.714;2023-04-26T01:27:48;-16261.94;;;-139.71;71.46
3598;BME280;1813;52.016;8.714;2023-04-26T01:30:23;-16261.94;;;-139.71;71.58
3598;BME280;1813;52.016;8.714;2023-04-26T01:33:00;-16261.94;;;-139.71;71.64
3598;BME280;1813;52.016;8.714;2023-04-26T01:35:34;-16261.94;;;-139.71;71.71
3598;BME280;1813;52.016;8.714;2023-04-26T01:38:11;-16261.94;;;-139.71;71.68
3598;BME280;1813;52.016;8.714;2023-04-26T01:40:47;-16261.94;;;-139.71;71.73
3598;BME280;1813;52.016;8.714;2023-04-26T01:43:22;-16261.94;;;-139.71;71.86
3598;BME280;1813;52.016;8.714;2023-04-26T01:45:57;-16261.94;;;-139.71;71.76
3598;BME280;1813;52.016;8.714;2023-04-26T01:48:34;-16261.94;;;-139.71;71.64
3598;BME280;1813;52.016;8.714;2023-04-26T01:51:08;-16261.94;;;-139.71;71.49
3598;BME280;1813;52.016;8.714;2023-04-26T01:53:46;-16261.94;;;-139.71;71.54
3598;BME280;1813;52.016;8.714;2023-04-26T01:56:22;-16261.94;;;-139.71;71.80
3598;BME280;1813;52.016;8.714;2023-04-26T01:58:57;-16261.94;;;-139.71;72.15
3598;BME280;1813;52.016;8.714;2023-04-26T02:01:31;-16261.94;;;-139.71;72.35
3598;BME280;1813;52.016;8.714;2023-04-26T02:04:08;-16261.94;;;-139.71;72.57
3598;BME280;1813;52.016;8.714;2023-04-26T02:06:42;-16261.94;;;-139.71;72.81
3598;BME280;1813;52.016;8.714;2023-04-26T02:09:26;-16261.94;;;-139.71;72.78
3598;BME280;1813;52.016;8.714;2023-04-26T02:12:00;-16261.94;;;-139.71;72.77
3598;BME280;1813;52.016;8.714;2023-04-26T02:14:35;-16261.94;;;-139.71;72.75
3598;BME280;1813;52.016;8.714;2023-04-26T02:17:09;-16261.94;;;-139.71;72.86
3598;BME280;1813;52.016;8.714;2023-04-26T02:19:43;-16261.94;;;-139.71;72.96
3598;BME280;1813;52.016;8.714;2023-04-26T02:22:17;-16261.94;;;-139.71;72.96
3598;BME280;1813;52.016;8.714;2023-04-26T02:24:56;-16261.94;;;-139.71;72.86
3598;BME280;1813;52.016;8.714;2023-04-26T02:27:31;-16261.94;;;-139.71;72.69
3598;BME280;1813;52.016;8.714;2023-04-26T02:30:06;-16261.94;;;-139.71;72.65
3598;BME280;1813;52.016;8.714;2023-04-26T02:32:43;-16261.94;;;-139.71;72.33
3598;BME280;1813;52.016;8.714;2023-04-26T02:35:17;-16261.94;;;-139.71;72.28
3598;BME280;1813;52.016;8.714;2023-04-26T02:37:51;-16261.94;;;-139.71;72.25
3598;BME280;1813;52.016;8.714;2023-04-26T02:40:28;-16261.94;;;-139.71;72.35
3598;BME280;1813;52.016;8.714;2023-04-26T02:43:02;-16261.94;;;-139.71;72.62
3598;BME280;1813;52.016;8.714;2023-04-26T02:45:40;-16261.94;;;-139.71;72.55
3598;BME280;1813;52.016;8.714;2023-04-26T02:48:16;-16261.94;;;-139.71;72.65
3598;BME280;1813;52.016;8.714;2023-04-26T02:50:50;-16261.94;;;-139.71;72.77
3598;BME280;1813;52.016;8.714;2023-04-26T02:53:28;-16261.94;;;-139.71;72.93
3598;BME280;1813;52.016;8.714;2023-04-26T02:56:06;-16261.94;;;-139.71;73.28
3598;BME280;1813;52.016;8.714;2023-04-26T02:58:41;-16261.94;;;-139.71;73.64
3598;BME280;1813;52.016;8.714;2023-04-26T03:01:16;-16261.94;;;-139.71;73.96
3598;BME280;1813;52.016;8.714;2023-04-26T03:03:50;-16261.94;;;-139.71;74.16
3598;BME280;1813;52.016;8.714;2023-04-26T03:06:27;-16261.94;;;-139.71;74.26
3598;BME280;1813;52.016;8.714;2023-04-26T03:09:03;-16261.94;;;-139.71;74.45
3598;BME280;1813;52.016;8.714;2023-04-26T03:11:41;-16261.94;;;-139.71;74.39
3598;BME280;1813;52.016;8.714;2023-04-26T03:14:15;-16261.94;;;-139.71;74.25
3598;BME280;1813;52.016;8.714;2023-04-26T03:16:49;-16261.94;;;-139.71;73.95
3598;BME280;1813;52.016;8.714;2023-04-26T03:19:24;-16261.94;;;-139.71;73.87
3598;BME280;1813;52.016;8.714;2023-04-26T03:21:59;-16261.94;;;-139.71;73.79
3598;BME280;1813;52.016;8.714;2023-04-26T03:24:33;-16261.94;;;-139.71;73.83
3598;BME280;1813;52.016;8.714;2023-04-26T03:27:10;-16261.94;;;-139.71;74.03
3598;BME280;1813;52.016;8.714;2023-04-26T03:29:44;-16261.94;;;-139.71;74.29
3598;BME280;1813;52.016;8.714;2023-04-26T03:32:19;-16261.94;;;-139.71;74.63
3598;BME280;1813;52.016;8.714;2023-04-26T03:34:53;-16261.94;;;-139.71;74.94
3598;BME280;1813;52.016;8.714;2023-04-26T03:37:28;-16261.94;;;-139.71;75.29
3598;BME280;1813;52.016;8.714;2023-04-26T03:40:08;-16261.94;;;-139.71;75.58
3598;BME280;1813;52.016;8.714;2023-04-26T03:42:46;-16261.94;;;-139.71;75.85
3598;BME280;1813;52.016;8.714;2023-04-26T03:45:20;-16261.94;;;-139.71;76.05
3598;BME280;1813;52.016;8.714;2023-04-26T03:47:56;-16261.94;;;-139.71;76.30
3598;BME280;1813;52.016;8.714;2023-04-26T03:50:33;-16261.94;;;-139.71;76.43
3598;BME280;1813;52.016;8.714;2023-04-26T03:53:07;-16261.94;;;-139.71;76.46
3598;BME280;1813;52.016;8.714;2023-04-26T03:55:42;-16261.94;;;-139.71;76.36
3598;BME280;1813;52.016;8.714;2023-04-26T03:58:20;-16261.94;;;-139.71;76.10
3598;BME280;1813;52.016;8.714;2023-04-26T04:00:55;-16261.94;;;-139.71;76.00
3598;BME280;1813;52.016;8.714;2023-04-26T04:03:29;-16261.94;;;-139.71;76.11
3598;BME280;1813;52.016;8.714;2023-04-26T04:06:04;-16261.94;;;-139.71;76.16
3598;BME280;1813;52.016;8.714;2023-04-26T04:08:39;-16261.94;;;-139.71;76.29
3598;BME280;1813;52.016;8.714;2023-04-26T04:11:13;-16261.94;;;-139.71;76.33
3598;BME280;1813;52.016;8.714;2023-04-26T04:13:50;-16261.94;;;-139.71;76.48
3598;BME280;1813;52.016;8.714;2023-04-26T04:16:24;-16261.94;;;-139.71;76.66
3598;BME280;1813;52.016;8.714;2023-04-26T04:18:58;-16261.94;;;-139.71;77.00
3598;BME280;1813;52.016;8.714;2023-04-26T04:21:33;-16261.94;;;-139.71;77.14
3598;BME280;1813;52.016;8.714;2023-04-26T04:24:08;-16261.94;;;-139.71;77.20
3598;BME280;1813;52.016;8.714;2023-04-26T04:26:44;-16261.94;;;-139.71;77.17
3598;BME280;1813;52.016;8.714;2023-04-26T04:29:21;-16261.94;;;-139.71;77.28
3598;BME280;1813;52.016;8.714;2023-04-26T04:31:55;-16261.94;;;-139.71;77.25
3598;BME280;1813;52.016;8.714;2023-04-26T04:34:33;-16261.94;;;-139.71;77.22
3598;BME280;1813;52.016;8.714;2023-04-26T04:37:08;-16261.94;;;-139.71;77.20
3598;BME280;1813;52.016;8.714;2023-04-26T04:39:43;-16261.94;;;-139.71;77.14
3598;BME280;1813;52.016;8.714;2023-04-26T04:42:17;-16261.94;;;-139.71;77.21
3598;BME280;1813;52.016;8.714;2023-04-26T04:44:56;-16261.94;;;-139.71;77.23
3598;BME280;1813;52.016;8.714;2023-04-26T04:47:31;-16261.94;;;-139.71;77.37
3598;BME280;1813;52.016;8.714;2023-04-26T04:50:08;-16261.94;;;-139.71;77.56
3598;BME280;1813;52.016;8.714;2023-04-26T04:52:42;-16261.94;;;-139.71;77.54
3598;BME280;1813;52.016;8.714;2023-04-26T04:55:18;-16261.94;;;-139.71;77.43
3598;BME280;1813;52.016;8.714;2023-04-26T04:57:52;-16261.94;;;-139.71;77.46
3598;BME280;1813;52.016;8.714;2023-04-26T05:00:30;-16261.94;;;-139.71;77.37
3598;BME280;1813;52.016;8.714;2023-04-26T05:03:17;-16261.94;;;-139.71;77.48
3598;BME280;1813;52.016;8.714;2023-04-26T05:05:53;-16261.94;;;-139.71;77.61
3598;BME280;1813;52.016;8.714;2023-04-26T05:08:27;-16261.94;;;-139.71;77.54
3598;BME280;1813;52.016;8.714;2023-04-26T05:11:05;-16261.94;;;-139.71;77.66
3598;BME280;1813;52.016;8.714;2023-04-26T05:13:40;-16261.94;;;-139.71;77.62
3598;BME280;1813;52.016;8.714;2023-04-26T05:16:17;-16261.94;;;-139.71;77.82
3598;BME280;1813;52.016;8.714;2023-04-26T05:18:52;-16261.94;;;-139.71;77.99
3598;BME280;1813;52.016;8.714;2023-04-26T05:21:27;-16261.94;;;-139.71;77.88
3598;BME280;1813;52.016;8.714;2023-04-26T05:24:02;-16261.94;;;-139.71;77.65
3598;BME280;1813;52.016;8.714;2023-04-26T05:26:38;-16261.94;;;-139.71;77.46
3598;BME280;1813;52.016;8.714;2023-04-26T05:29:31;-16261.94;;;-139.71;77.06
3598;BME280;1813;52.016;8.714;2023-04-26T05:32:34;-16261.94;;;-139.71;76.71
3598;BME280;1813;52.016;8.714;2023-04-26T05:35:18;-16261.94;;;-139.71;76.46
3598;BME280;1813;52.016;8.714;2023-04-26T05:37:53;-16261.94;;;-139.71;76.40
3598;BME280;1813;52.016;8.714;2023-04-26T05:40:29;-16261.94;;;-139.71;76.52
3598;BME280;1813;52.016;8.714;2023-04-26T05:43:03;-16261.94;;;-139.71;76.89
3598;BME280;1813;52.016;8.714;2023-04-26T05:45:40;-16261.94;;;-139.71;77.34
3598;BME280;1813;52.016;8.714;2023-04-26T05:48:32;-16261.94;;;-139.71;77.63
3598;BME280;1813;52.016;8.714;2023-04-26T05:51:06;-16261.94;;;-139.71;77.82
3598;BME280;1813;52.016;8.714;2023-04-26T05:53:40;-16261.94;;;-139.71;77.96
3598;BME280;1813;52.016;8.714;2023-04-26T05:56:14;-16261.94;;;-139.71;77.55
3598;BME280;1813;52.016;8.714;2023-04-26T05:58:49;-16261.94;;;-139.71;77.29
3598;BME280;1813;52.016;8.714;2023-04-26T06:01:24;-16261.94;;;-139.71;76.99
3598;BME280;1813;52.016;8.714;2023-04-26T06:04:01;-16261.94;;;-139.71;76.45
3598;BME280;1813;52.016;8.714;2023-04-26T06:06:46;-16261.94;;;-139.71;75.54
3598;BME280;1813;52.016;8.714;2023-04-26T06:09:20;-16261.94;;;-139.71;74.60
3598;BME280;1813;52.016;8.714;2023-04-26T06:11:55;-16261.94;;;-139.71;73.84
3598;BME280;1813;52.016;8.714;2023-04-26T06:14:29;-16261.94;;;-139.71;73.41
3598;BME280;1813;52.016;8.714;2023-04-26T06:17:09;-16261.94;;;-139.71;72.94
3598;BME280;1813;52.016;8.714;2023-04-26T06:19:46;-16261.94;;;-139.71;73.17
3598;BME280;1813;52.016;8.714;2023-04-26T06:22:21;-16261.94;;;-139.71;73.19
3598;BME280;1813;52.016;8.714;2023-04-26T06:24:55;-16261.94;;;-139.71;72.99
3598;BME280;1813;52.016;8.714;2023-04-26T06:27:30;-16261.94;;;-139.71;72.43
3598;BME280;1813;52.016;8.714;2023-04-26T06:30:08;-16261.94;;;-139.71;72.10
3598;BME280;1813;52.016;8.714;2023-04-26T06:32:47;-16261.94;;;-139.71;72.33
3598;BME280;1813;52.016;8.714;2023-04-26T06:35:24;-16261.94;;;-139.71;72.51
3598;BME280;1813;52.016;8.714;2023-04-26T06:37:58;-16261.94;;;-139.71;72.41
3598;BME280;1813;52.016;8.714;2023-04-26T06:40:33;-16261.94;;;-139.71;72.00
3598;BME280;1813;52.016;8.714;2023-04-26T06:43:07;-16261.94;;;-139.71;70.73
3598;BME280;1813;52.016;8.714;2023-04-26T06:45:49;-16261.94;;;-139.71;69.58
3598;BME280;1813;52.016;8.714;2023-04-26T06:48:27;-16261.94;;;-139.71;69.09
3598;BME280;1813;52.016;8.714;2023-04-26T06:51:07;-16261.94;;;-139.71;69.25
3598;BME280;1813;52.016;8.714;2023-04-26T06:53:44;-16261.94;;;-139.71;69.01
3598;BME280;1813;52.016;8.714;2023-04-26T06:56:19;-16261.94;;;-139.71;68.94
3598;BME280;1813;52.016;8.714;2023-04-26T06:59:00;-16261.94;;;-139.71;67.79
3598;BME280;1813;52.016;8.714;2023-04-26T07:01:34;-16261.94;;;-139.71;66.25
3598;BME280;1813;52.016;8.714;2023-04-26T07:04:09;-16261.94;;;-139.71;65.84
3598;BME280;1813;52.016;8.714;2023-04-26T07:06:47;-16261.94;;;-139.71;65.26
3598;BME280;1813;52.016;8.714;2023-04-26T07:09:21;-16261.94;;;-139.71;64.91
3598;BME280;1813;52.016;8.714;2023-04-26T07:11:56;-16261.94;;;-139.71;64.76
3598;BME280;1813;52.016;8.714;2023-04-26T07:14:30;-16261.94;;;-139.71;63.67
3598;BME280;1813;52.016;8.714;2023-04-26T07:17:05;-16261.94;;;-139.71;62.25
3598;BME280;1813;52.016;8.714;2023-04-26T07:19:39;-16261.94;;;-139.71;62.52
3598;BME280;1813;52.016;8.714;2023-04-26T07:22:16;-16261.94;;;-139.71;62.35
3598;BME280;1813;52.016;8.714;2023-04-26T07:24:50;-16261.94;;;-139.71;61.43
3598;BME280;1813;52.016;8.714;2023-04-26T07:27:24;-16261.94;;;-139.71;61.37
3598;BME280;1813;52.016;8.714;2023-04-26T07:30:00;-16261.94;;;-139.71;61.71
3598;BME280;1813;52.016;8.714;2023-04-26T07:32:35;-16261.94;;;-139.71;60.25
3598;BME280;1813;52.016;8.714;2023-04-26T07:35:10;-16261.94;;;-139.71;58.76
3598;BME280;1813;52.016;8.714;2023-04-26T07:37:48;-16261.94;;;-139.71;58.26
3598;BME280;1813;52.016;8.714;2023-04-26T07:40:22;-16261.94;;;-139.71;57.73
3598;BME280;1813;52.016;8.714;2023-04-26T07:42:56;-16261.94;;;-139.71;57.29
3598;BME280;1813;52.016;8.714;2023-04-26T07:45:31;-16261.94;;;-139.71;57.58
3598;BME280;1813;52.016;8.714;2023-04-26T07:48:06;-16261.94;;;-139.71;56.07
3598;BME280;1813;52.016;8.714;2023-04-26T07:50:40;-16261.94;;;-139.71;55.80
3598;BME280;1813;52.016;8.714;2023-04-26T07:53:17;-16261.94;;;-139.71;54.96
3598;BME280;1813;52.016;8.714;2023-04-26T07:55:51;-16261.94;;;-139.71;54.92
3598;BME280;1813;52.016;8.714;2023-04-26T07:58:25;-16261.94;;;-139.71;53.93
3598;BME280;1813;52.016;8.714;2023-04-26T08:00:59;-16261.94;;;-139.71;52.87
3598;BME280;1813;52.016;8.714;2023-04-26T08:03:34;-16261.94;;;-139.71;51.71
3598;BME280;1813;52.016;8.714;2023-04-26T08:06:08;-16261.94;;;-139.71;51.11
3598;BME280;1813;52.016;8.714;2023-04-26T08:08:45;-16261.94;;;-139.71;52.00
3598;BME280;1813;52.016;8.714;2023-04-26T08:11:20;-16261.94;;;-139.71;51.02
3598;BME280;1813;52.016;8.714;2023-04-26T08:13:54;-16261.94;;;-139.71;50.70
3598;BME280;1813;52.016;8.714;2023-04-26T08:16:29;-16261.94;;;-139.71;49.88
3598;BME280;1813;52.016;8.714;2023-04-26T08:19:04;-16261.94;;;-139.71;48.76
3598;BME280;1813;52.016;8.714;2023-04-26T08:21:38;-16261.94;;;-139.71;47.94
3598;BME280;1813;52.016;8.714;2023-04-26T08:24:15;-16261.94;;;-139.71;48.65
3598;BME280;1813;52.016;8.714;2023-04-26T08:26:50;-16261.94;;;-139.71;47.32
3598;BME280;1813;52.016;8.714;2023-04-26T08:29:25;-16261.94;;;-139.71;47.71
3598;BME280;1813;52.016;8.714;2023-04-26T08:31:59;-16261.94;;;-139.71;47.64
3598;BME280;1813;52.016;8.714;2023-04-26T08:34:34;-16261.94;;;-139.71;48.94
3598;BME280;1813;52.016;8.714;2023-04-26T08:37:09;-16261.94;;;-139.71;49.07
3598;BME280;1813;52.016;8.714;2023-04-26T08:39:46;-16261.94;;;-139.71;47.77
3598;BME280;1813;52.016;8.714;2023-04-26T08:42:22;-16261.94;;;-139.71;47.18
3598;BME280;1813;52.016;8.714;2023-04-26T08:45:00;-16261.94;;;-139.71;46.21
3598;BME280;1813;52.016;8.714;2023-04-26T08:47:39;-16261.94;;;-139.71;46.48
3598;BME280;1813;52.016;8.714;2023-04-26T08:50:15;-16261.94;;;-139.71;46.67
3598;BME280;1813;52.016;8.714;2023-04-26T08:52:50;-16261.94;;;-139.71;45.65
3598;BME280;1813;52.016;8.714;2023-04-26T08:55:28;-16261.94;;;-139.71;45.20
3598;BME280;1813;52.016;8.714;2023-04-26T08:58:03;-16261.94;;;-139.71;45.56
3598;BME280;1813;52.016;8.714;2023-04-26T09:00:42;-16261.94;;;-139.71;44.54
3598;BME280;1813;52.016;8.714;2023-04-26T09:03:16;-16261.94;;;-139.71;42.88
3598;BME280;1813;52.016;8.714;2023-04-26T09:05:51;-16261.94;;;-139.71;41.66
3598;BME280;1813;52.016;8.714;2023-04-26T09:08:27;-16261.94;;;-139.71;42.92
3598;BME280;1813;52.016;8.714;2023-04-26T09:11:05;-16261.94;;;-139.71;42.26
3598;BME280;1813;52.016;8.714;2023-04-26T09:13:39;-16261.94;;;-139.71;42.94
3598;BME280;1813;52.016;8.714;2023-04-26T09:16:13;-16261.94;;;-139.71;42.14
3598;BME280;1813;52.016;8.714;2023-04-26T09:18:49;-16261.94;;;-139.71;41.33
3598;BME280;1813;52.016;8.714;2023-04-26T09:21:27;-16261.94;;;-139.71;40.52
3598;BME280;1813;52.016;8.714;2023-04-26T09:24:02;-16261.94;;;-139.71;41.11
3598;BME280;1813;52.016;8.714;2023-04-26T09:26:39;-16261.94;;;-139.71;41.59
3598;BME280;1813;52.016;8.714;2023-04-26T09:29:15;-16261.94;;;-139.71;42.50
3598;BME280;1813;52.016;8.714;2023-04-26T09:31:51;-16261.94;;;-139.71;41.77
3598;BME280;1813;52.016;8.714;2023-04-26T09:34:27;-16261.94;;;-139.71;41.33
3598;BME280;1813;52.016;8.714;2023-04-26T09:37:02;-16261.94;;;-139.71;41.17
3598;BME280;1813;52.016;8.714;2023-04-26T09:39:38;-16261.94;;;-139.71;42.33
3598;BME280;1813;52.016;8.714;2023-04-26T09:42:16;-16261.94;;;-139.71;42.64
3598;BME280;1813;52.016;8.714;2023-04-26T09:44:51;-16261.94;;;-139.71;43.55
3598;BME280;1813;52.016;8.714;2023-04-26T09:47:25;-16261.94;;;-139.71;42.11
3598;BME280;1813;52.016;8.714;2023-04-26T09:50:00;-16261.94;;;-139.71;40.35
3598;BME280;1813;52.016;8.714;2023-04-26T09:52:42;-16261.94;;;-139.71;39.47
3598;BME280;1813;52.016;8.714;2023-04-26T09:55:25;-16261.94;;;-139.71;39.42
3598;BME280;1813;52.016;8.714;2023-04-26T09:58:07;-16261.94;;;-139.71;38.96
3598;BME280;1813;52.016;8.714;2023-04-26T10:00:42;-16261.94;;;-139.71;39.48
3598;BME280;1813;52.016;8.714;2023-04-26T10:03:18;-16261.94;;;-139.71;40.32
3598;BME280;1813;52.016;8.714;2023-04-26T10:05:55;-16261.94;;;-139.71;40.48
3598;BME280;1813;52.016;8.714;2023-04-26T10:08:30;-16261.94;;;-139.71;40.82
3598;BME280;1813;52.016;8.714;2023-04-26T10:11:05;-16261.94;;;-139.71;40.48
3598;BME280;1813;52.016;8.714;2023-04-26T10:13:44;-16261.94;;;-139.71;39.89
3598;BME280;1813;52.016;8.714;2023-04-26T10:16:19;-16261.94;;;-139.71;39.95
3598;BME280;1813;52.016;8.714;2023-04-26T10:18:55;-16261.94;;;-139.71;40.05
3598;BME280;1813;52.016;8.714;2023-04-26T10:21:32;-16261.94;;;-139.71;40.02
3598;BME280;1813;52.016;8.714;2023-04-26T10:24:09;-16261.94;;;-139.71;39.90
3598;BME280;1813;52.016;8.714;2023-04-26T10:26:48;-16261.94;;;-139.71;41.03
3598;BME280;1813;52.016;8.714;2023-04-26T10:33:14;-16261.94;;;-139.71;43.58
3598;BME280;1813;52.016;8.714;2023-04-26T10:36:03;-16261.94;;;-139.71;43.93
3598;BME280;1813;52.016;8.714;2023-04-26T10:38:40;-16261.94;;;-139.71;44.74
3598;BME280;1813;52.016;8.714;2023-04-26T10:41:28;-16261.94;;;-139.71;45.64
3598;BME280;1813;52.016;8.714;2023-04-26T10:47:24;-16261.94;;;-139.71;45.99
3598;BME280;1813;52.016;8.714;2023-04-26T10:50:04;-16261.94;;;-139.71;46.89
3598;BME280;1813;52.016;8.714;2023-04-26T10:53:04;-16261.94;;;-139.71;45.20
3598;BME280;1813;52.016;8.714;2023-04-26T10:55:39;-16261.94;;;-139.71;44.99
3598;BME280;1813;52.016;8.714;2023-04-26T10:58:27;-16261.94;;;-139.71;45.62
3598;BME280;1813;52.016;8.714;2023-04-26T11:01:05;-16261.94;;;-139.71;46.26
3598;BME280;1813;52.016;8.714;2023-04-26T11:04:00;-16261.94;;;-139.71;45.05
3598;BME280;1813;52.016;8.714;2023-04-26T11:06:48;-16261.94;;;-139.71;44.41
3598;BME280;1813;52.016;8.714;2023-04-26T11:09:35;-16261.94;;;-139.71;43.69
3598;BME280;1813;52.016;8.714;2023-04-26T11:12:11;-16261.94;;;-139.71;42.85
3598;BME280;1813;52.016;8.714;2023-04-26T11:14:46;-16261.94;;;-139.71;42.26
3598;BME280;1813;52.016;8.714;2023-04-26T11:17:20;-16261.94;;;-139.71;41.70
3598;BME280;1813;52.016;8.714;2023-04-26T11:20:04;-16261.94;;;-139.71;42.44
3598;BME280;1813;52.016;8.714;2023-04-26T11:22:41;-16261.94;;;-139.71;42.13
3598;BME280;1813;52.016;8.714;2023-04-26T11:25:15;-16261.94;;;-139.71;42.10
3598;BME280;1813;52.016;8.714;2023-04-26T11:27:50;-16261.94;;;-139.71;42.66
3598;BME280;1813;52.016;8.714;2023-04-26T11:30:23;-16261.94;;;-139.71;42.06
3598;BME280;1813;52.016;8.714;2023-04-26T11:32:58;-16261.94;;;-139.71;41.16
3598;BME280;1813;52.016;8.714;2023-04-26T11:35:37;-16261.94;;;-139.71;40.34
3598;BME280;1813;52.016;8.714;2023-04-26T11:38:11;-16261.94;;;-139.71;40.22
3598;BME280;1813;52.016;8.714;2023-04-26T11:40:52;-16261.94;;;-139.71;41.87
3598;BME280;1813;52.016;8.714;2023-04-26T11:43:33;-16261.94;;;-139.71;42.38
3598;BME280;1813;52.016;8.714;2023-04-26T11:46:08;-16261.94;;;-139.71;43.41
3598;BME280;1813;52.016;8.714;2023-04-26T11:48:42;-16261.94;;;-139.71;43.41
3598;BME280;1813;52.016;8.714;2023-04-26T11:51:19;-16261.94;;;-139.71;43.62
3598;BME280;1813;52.016;8.714;2023-04-26T11:53:54;-16261.94;;;-139.71;43.13
3598;BME280;1813;52.016;8.714;2023-04-26T11:56:29;-16261.94;;;-139.71;43.16
3598;BME280;1813;52.016;8.714;2023-04-26T11:59:03;-16261.94;;;-139.71;43.21
3598;BME280;1813;52.016;8.714;2023-04-26T12:01:37;-16261.94;;;-139.71;43.16
3598;BME280;1813;52.016;8.714;2023-04-26T12:04:11;-16261.94;;;-139.71;43.04
3598;BME280;1813;52.016;8.714;2023-04-26T12:06:49;-16261.94;;;-139.71;43.14
3598;BME280;1813;52.016;8.714;2023-04-26T12:09:25;-16261.94;;;-139.71;44.37
3598;BME280;1813;52.016;8.714;2023-04-26T12:12:00;-16261.94;;;-139.71;42.23
3598;BME280;1813;52.016;8.714;2023-04-26T12:14:37;-16261.94;;;-139.71;42.66
3598;BME280;1813;52.016;8.714;2023-04-26T12:17:14;-16261.94;;;-139.71;41.97
3598;BME280;1813;52.016;8.714;2023-04-26T12:19:49;-16261.94;;;-139.71;41.96
3598;BME280;1813;52.016;8.714;2023-04-26T12:22:25;-16261.94;;;-139.71;40.65
3598;BME280;1813;52.016;8.714;2023-04-26T12:25:04;-16261.94;;;-139.71;40.43
3598;BME280;1813;52.016;8.714;2023-04-26T12:27:39;-16261.94;;;-139.71;40.99
3598;BME280;1813;52.016;8.714;2023-04-26T12:30:13;-16261.94;;;-139.71;40.76
3598;BME280;1813;52.016;8.714;2023-04-26T12:32:48;-16261.94;;;-139.71;40.93
3598;BME280;1813;52.016;8.714;2023-04-26T12:35:22;-16261.94;;;-139.71;41.19
3598;BME280;1813;52.016;8.714;2023-04-26T12:37:59;-16261.94;;;-139.71;41.50
3598;BME280;1813;52.016;8.714;2023-04-26T12:40:34;-16261.94;;;-139.71;41.11
3598;BME280;1813;52.016;8.714;2023-04-26T12:43:09;-16261.94;;;-139.71;41.51
3598;BME280;1813;52.016;8.714;2023-04-26T12:45:45;-16261.94;;;-139.71;41.50
3598;BME280;1813;52.016;8.714;2023-04-26T12:48:21;-16261.94;;;-139.71;42.05
3598;BME280;1813;52.016;8.714;2023-04-26T12:50:55;-16261.94;;;-139.71;42.39
3598;BME280;1813;52.016;8.714;2023-04-26T12:53:32;-16261.94;;;-139.71;43.37
3598;BME280;1813;52.016;8.714;2023-04-26T12:56:07;-16261.94;;;-139.71;42.44
3598;BME280;1813;52.016;8.714;2023-04-26T12:58:41;-16261.94;;;-139.71;41.65
3598;BME280;1813;52.016;8.714;2023-04-26T13:01:16;-16261.94;;;-139.71;40.71
3598;BME280;1813;52.016;8.714;2023-04-26T13:03:50;-16261.94;;;-139.71;38.66
3598;BME280;1813;52.016;8.714;2023-04-26T13:06:26;-16261.94;;;-139.71;37.80
3598;BME280;1813;52.016;8.714;2023-04-26T13:09:03;-16261.94;;;-139.71;38.10
3598;BME280;1813;52.016;8.714;2023-04-26T13:11:38;-16261.94;;;-139.71;37.05
3598;BME280;1813;52.016;8.714;2023-04-26T13:14:14;-16261.94;;;-139.71;37.53
3598;BME280;1813;52.016;8.714;2023-04-26T13:16:48;-16261.94;;;-139.71;36.96
3598;BME280;1813;52.016;8.714;2023-04-26T13:19:22;-16261.94;;;-139.71;38.73
3598;BME280;1813;52.016;8.714;2023-04-26T13:22:00;-16261.94;;;-139.71;38.96
3598;BME280;1813;52.016;8.714;2023-04-26T13:24:37;-16261.94;;;-139.71;37.93
3598;BME280;1813;52.016;8.714;2023-04-26T13:27:12;-16261.94;;;-139.71;37.72
3598;BME280;1813;52.016;8.714;2023-04-26T13:29:46;-16261.94;;;-139.71;38.67
3598;BME280;1813;52.016;8.714;2023-04-26T13:32:21;-16261.94;;;-139.71;39.40
3598;BME280;1813;52.016;8.714;2023-04-26T13:34:58;-16261.94;;;-139.71;39.57
3598;BME280;1813;52.016;8.714;2023-04-26T13:37:32;-16261.94;;;-139.71;39.79
3598;BME280;1813;52.016;8.714;2023-04-26T13:40:11;-16261.94;;;-139.71;40.76
3598;BME280;1813;52.016;8.714;2023-04-26T13:42:45;-16261.94;;;-139.71;40.30
3598;BME280;1813;52.016;8.714;2023-04-26T13:45:19;-16261.94;;;-139.71;40.27